Weather at Oksywie Military Air Base

Public forecast

Using degrees Celsius for public forecast. Weather courtesy of forecast.io.

Closest aviation weather report (METAR) to Oksywie Military Air Base

Closest report is Gdańsk Lech Wałęsa Airport, 12.3 nm (22.7 km) S. Retrieved 2021/06/25 04:00 UTC (33 minutes ago):

EPGD 250400Z 26005KT 9999 BKN035 15/14 Q1014

Closest aviation forecast (TAF) to Oksywie Military Air Base

Closest forecast is Gdańsk Lech Wałęsa Airport, 12.3 nm (22.7 km) S. Retrieved 2021-06-25 00:33 UTC (4 hours ago):

TAF TAF EPGD 242330Z 2500/2524 30010KT 9999 BKN005 BECMG 2502/2505 SCT010 BKN035 PROB40 TEMPO 2507/2518 -SHRA BKN030CB